createdAt,value
2023-02-21T00:02:17.000Z,6.07
2023-02-21T00:05:37.103Z,6.19
2023-02-21T00:08:56.962Z,6.20
2023-02-21T00:12:16.901Z,6.05
2023-02-21T00:15:36.740Z,6.00
2023-02-21T00:18:57.644Z,6.03
2023-02-21T00:22:17.482Z,6.09
2023-02-21T00:25:37.333Z,6.05
2023-02-21T00:28:57.869Z,6.03
2023-02-21T00:32:18.384Z,6.03
2023-02-21T00:35:38.486Z,5.91
2023-02-21T00:38:58.135Z,5.65
2023-02-21T00:42:18.140Z,5.68
2023-02-21T00:45:38.435Z,5.67
2023-02-21T00:48:58.693Z,5.66
2023-02-21T00:52:18.742Z,5.69
2023-02-21T00:55:38.445Z,5.71
2023-02-21T00:58:58.495Z,5.73
2023-02-21T01:02:18.366Z,5.74
2023-02-21T01:05:38.541Z,5.67
2023-02-21T01:09:05.453Z,5.57
2023-02-21T01:12:25.451Z,5.56
2023-02-21T01:15:45.759Z,5.47
2023-02-21T01:19:07.747Z,5.47
2023-02-21T01:22:27.967Z,5.49
2023-02-21T01:25:48.033Z,5.51
2023-02-21T01:29:08.116Z,5.37
2023-02-21T01:32:28.348Z,5.39
2023-02-21T01:35:48.605Z,5.35
2023-02-21T01:39:08.278Z,5.38
2023-02-21T01:42:29.578Z,5.39
2023-02-21T01:46:00.354Z,5.39
2023-02-21T01:49:26.676Z,5.31
2023-02-21T01:52:46.780Z,5.20
2023-02-21T01:56:07.122Z,5.14
2023-02-21T01:59:28.635Z,5.13
2023-02-21T02:03:26.483Z,5.13
2023-02-21T02:06:50.530Z,5.18
2023-02-21T02:10:10.599Z,5.20
2023-02-21T02:13:33.476Z,5.17
2023-02-21T02:16:42.577Z,5.17
2023-02-21T02:19:59.726Z,5.06
2023-02-21T02:23:29.148Z,4.98
2023-02-21T02:26:58.958Z,5.01
2023-02-21T02:30:08.448Z,5.06
2023-02-21T02:33:59.132Z,5.11
2023-02-21T02:37:17.043Z,5.17
2023-02-21T02:40:31.105Z,5.20
2023-02-21T02:43:51.067Z,5.01
2023-02-21T02:46:54.812Z,4.87
2023-02-21T02:49:59.108Z,4.90
2023-02-21T02:53:03.661Z,4.91
2023-02-21T02:56:10.839Z,4.85
2023-02-21T02:59:20.465Z,4.77
2023-02-21T03:02:37.934Z,4.84
2023-02-21T03:05:52.854Z,4.85
2023-02-21T03:09:19.138Z,4.93
2023-02-21T03:12:47.243Z,4.89
2023-02-21T03:16:01.738Z,4.78
2023-02-21T03:19:13.818Z,4.75
2023-02-21T03:22:21.776Z,4.70
2023-02-21T03:25:25.520Z,4.70
2023-02-21T03:28:32.807Z,4.80
2023-02-21T03:31:39.846Z,4.87
2023-02-21T03:34:43.534Z,4.83
2023-02-21T03:37:52.177Z,4.72
2023-02-21T03:40:54.849Z,4.70
2023-02-21T03:43:57.460Z,4.66
2023-02-21T03:46:59.053Z,4.62
2023-02-21T03:50:00.560Z,4.71
2023-02-21T03:53:02.532Z,4.82
2023-02-21T03:56:06.344Z,4.75
2023-02-21T03:59:23.159Z,4.76
2023-02-21T04:02:25.080Z,4.70
2023-02-21T04:05:27.271Z,4.56
2023-02-21T04:08:28.801Z,4.51
2023-02-21T04:11:31.392Z,4.44
2023-02-21T04:14:33.945Z,4.40
2023-02-21T04:17:35.356Z,4.50
2023-02-21T04:20:38.244Z,4.49
2023-02-21T04:23:42.803Z,4.46
2023-02-21T04:26:44.440Z,4.50
2023-02-21T04:29:45.847Z,4.56
2023-02-21T04:32:47.327Z,4.54
2023-02-21T04:35:50.495Z,4.58
2023-02-21T04:39:01.172Z,4.61
2023-02-21T04:42:02.642Z,4.59
2023-02-21T04:45:05.673Z,4.37
2023-02-21T04:48:07.078Z,4.30
2023-02-21T04:51:15.481Z,4.28
2023-02-21T04:54:17.094Z,4.35
2023-02-21T04:57:18.555Z,4.41
2023-02-21T05:00:20.125Z,4.32
2023-02-21T05:03:21.921Z,4.34
2023-02-21T05:06:25.409Z,4.35
2023-02-21T05:09:26.799Z,4.32
2023-02-21T05:12:28.198Z,4.30
2023-02-21T05:15:29.627Z,4.38
2023-02-21T05:18:31.022Z,4.42
2023-02-21T05:21:35.941Z,4.44
2023-02-21T05:24:44.848Z,4.52
2023-02-21T05:27:46.685Z,4.47
2023-02-21T05:30:48.128Z,4.41
2023-02-21T05:33:49.587Z,4.31
2023-02-21T05:36:51.499Z,4.21
2023-02-21T05:39:52.980Z,4.24
2023-02-21T05:42:54.397Z,4.31
2023-02-21T05:45:56.029Z,4.22
2023-02-21T05:48:58.523Z,4.22
2023-02-21T05:51:59.928Z,4.24
2023-02-21T05:55:01.412Z,4.23
2023-02-21T05:58:02.869Z,4.23
2023-02-21T06:01:05.154Z,4.26
2023-02-21T06:04:07.554Z,4.32
2023-02-21T06:07:08.947Z,4.18
2023-02-21T06:10:10.499Z,4.11
2023-02-21T06:13:12.018Z,4.18
2023-02-21T06:16:13.461Z,4.03
2023-02-21T06:19:16.440Z,4.05
2023-02-21T06:22:17.837Z,4.11
2023-02-21T06:25:19.366Z,4.19
2023-02-21T06:28:20.765Z,4.20
2023-02-21T06:31:22.517Z,4.29
2023-02-21T06:34:23.964Z,4.32
2023-02-21T06:37:25.359Z,4.32
2023-02-21T06:40:26.734Z,4.30
2023-02-21T06:43:28.098Z,4.31
2023-02-21T06:46:30.843Z,4.28
2023-02-21T06:49:32.259Z,4.26
2023-02-21T06:52:33.672Z,4.29
2023-02-21T06:55:35.085Z,4.35
2023-02-21T06:58:36.516Z,4.41
2023-02-21T07:01:37.939Z,4.42
2023-02-21T07:04:39.444Z,4.52
2023-02-21T07:07:42.766Z,4.62
2023-02-21T07:10:44.254Z,4.61
2023-02-21T07:13:53.012Z,4.62
2023-02-21T07:16:54.413Z,4.73
2023-02-21T07:19:55.785Z,4.82
2023-02-21T07:22:57.171Z,4.91
2023-02-21T07:25:58.650Z,5.02
2023-02-21T07:29:00.185Z,5.13
2023-02-21T07:32:01.596Z,5.25
2023-02-21T07:35:04.154Z,5.37
2023-02-21T07:38:05.579Z,5.47
2023-02-21T07:41:06.945Z,5.61
2023-02-21T07:44:08.599Z,5.74
2023-02-21T07:47:10.634Z,5.92
2023-02-21T07:50:12.563Z,6.05
2023-02-21T07:53:15.743Z,6.19
2023-02-21T07:56:17.222Z,6.35
2023-02-21T07:59:18.611Z,6.41
2023-02-21T08:02:20.411Z,6.54
2023-02-21T08:05:22.104Z,6.66
2023-02-21T08:08:23.517Z,6.84
2023-02-21T08:11:24.926Z,7.17
2023-02-21T08:14:26.436Z,7.34
2023-02-21T08:17:27.888Z,7.40
2023-02-21T08:20:29.338Z,7.52
2023-02-21T08:23:30.728Z,7.74
2023-02-21T08:26:32.149Z,7.91
2023-02-21T08:29:33.551Z,7.97
2023-02-21T08:32:35.517Z,8.07
2023-02-21T08:35:36.923Z,8.27
2023-02-21T08:38:39.550Z,8.37
2023-02-21T08:41:45.679Z,8.54
2023-02-21T08:44:47.865Z,8.56
2023-02-21T08:47:50.358Z,8.58
2023-02-21T08:50:53.634Z,8.76
2023-02-21T08:53:55.498Z,8.86
2023-02-21T08:56:58.617Z,9.02
2023-02-21T09:00:00.441Z,8.96
2023-02-21T09:03:02.169Z,9.08
2023-02-21T09:06:03.759Z,9.16
2023-02-21T09:09:05.145Z,9.30
2023-02-21T09:12:08.505Z,9.30
2023-02-21T09:15:10.727Z,9.46
2023-02-21T09:18:13.403Z,9.66
2023-02-21T09:21:16.245Z,9.79
2023-02-21T09:24:17.727Z,9.81
2023-02-21T09:27:20.048Z,9.96
2023-02-21T09:30:25.953Z,10.08
2023-02-21T09:33:27.491Z,10.12
2023-02-21T09:36:28.881Z,10.26
2023-02-21T09:39:30.268Z,10.64
2023-02-21T09:42:32.363Z,10.69
2023-02-21T09:45:36.997Z,10.87
2023-02-21T09:48:40.875Z,11.09
2023-02-21T09:51:43.775Z,11.33
2023-02-21T09:54:52.117Z,11.41
2023-02-21T09:57:54.377Z,11.46
2023-02-21T10:01:01.096Z,11.55
2023-02-21T10:04:21.688Z,11.69
2023-02-21T10:07:28.771Z,11.80
2023-02-21T10:10:46.496Z,11.87
2023-02-21T10:14:07.541Z,12.08
2023-02-21T10:17:36.768Z,12.25
2023-02-21T10:20:50.309Z,12.38
2023-02-21T10:23:57.687Z,12.58
2023-02-21T10:27:07.546Z,12.70
2023-02-21T10:30:18.007Z,12.77
2023-02-21T10:33:19.629Z,13.01
2023-02-21T10:36:23.063Z,13.15
2023-02-21T10:39:50.289Z,13.25
2023-02-21T10:43:01.186Z,13.46
2023-02-21T10:46:30.167Z,13.73
2023-02-21T10:49:39.574Z,13.82
2023-02-21T10:52:51.462Z,13.93
2023-02-21T10:56:15.223Z,14.00
2023-02-21T10:59:26.495Z,14.07
2023-02-21T11:02:44.797Z,14.24
2023-02-21T11:05:57.519Z,14.38
2023-02-21T11:08:59.638Z,14.47
2023-02-21T11:12:16.177Z,14.52
2023-02-21T11:15:18.970Z,14.57
2023-02-21T11:18:25.642Z,14.68
2023-02-21T11:21:27.113Z,14.64
2023-02-21T11:24:28.628Z,14.73
2023-02-21T11:27:32.526Z,14.64
2023-02-21T11:30:40.409Z,14.91
2023-02-21T11:33:57.641Z,15.09
2023-02-21T11:37:03.794Z,15.02
2023-02-21T11:40:08.477Z,15.29
2023-02-21T11:43:26.541Z,15.33
2023-02-21T11:46:37.915Z,15.51
2023-02-21T11:50:01.415Z,15.54
2023-02-21T11:53:26.064Z,15.69
2023-02-21T11:56:43.102Z,15.85
2023-02-21T12:00:20.011Z,16.20
2023-02-21T12:03:44.860Z,16.17
2023-02-21T12:06:57.076Z,16.09
2023-02-21T12:10:32.329Z,16.17
2023-02-21T12:13:58.847Z,16.30
2023-02-21T12:17:22.042Z,16.17
2023-02-21T12:20:38.479Z,15.96
2023-02-21T12:23:56.497Z,16.18
2023-02-21T12:27:31.162Z,16.44
2023-02-21T12:30:50.999Z,16.28
2023-02-21T12:34:06.844Z,16.44
2023-02-21T12:37:18.910Z,16.40
2023-02-21T12:40:28.708Z,16.66
2023-02-21T12:43:41.756Z,16.58
2023-02-21T12:47:17.442Z,17.04
2023-02-21T12:50:23.340Z,17.28
2023-02-21T12:54:03.670Z,17.18
2023-02-21T12:57:25.938Z,17.17
2023-02-21T13:00:44.186Z,17.27
2023-02-21T13:04:09.235Z,17.30
2023-02-21T13:07:21.543Z,17.33
2023-02-21T13:10:29.394Z,17.33
2023-02-21T13:13:32.832Z,17.66
2023-02-21T13:16:34.677Z,17.57
2023-02-21T13:19:50.104Z,17.52
2023-02-21T13:23:28.821Z,17.58
2023-02-21T13:27:07.981Z,17.75
2023-02-21T13:30:15.462Z,17.64
2023-02-21T13:33:38.494Z,17.40
2023-02-21T13:36:39.857Z,17.58
2023-02-21T13:39:45.419Z,17.62
2023-02-21T13:42:47.068Z,17.53
2023-02-21T13:45:48.810Z,17.66
2023-02-21T13:49:27.906Z,17.54
2023-02-21T13:52:32.016Z,17.83
2023-02-21T13:55:35.898Z,18.03
2023-02-21T13:58:45.937Z,18.40
2023-02-21T14:01:50.273Z,18.25
2023-02-21T14:05:01.577Z,18.02
2023-02-21T14:08:07.135Z,18.04
2023-02-21T14:11:12.431Z,18.33
2023-02-21T14:14:24.211Z,18.65
2023-02-21T14:17:29.373Z,18.46
2023-02-21T14:20:31.768Z,18.34
2023-02-21T14:23:45.548Z,17.96
2023-02-21T14:26:53.053Z,18.04
2023-02-21T14:30:00.687Z,18.26
2023-02-21T14:33:21.819Z,18.35
2023-02-21T14:36:24.065Z,18.29
2023-02-21T14:39:32.856Z,18.58
2023-02-21T14:42:43.357Z,18.64
2023-02-21T14:46:25.441Z,18.76
2023-02-21T14:49:51.764Z,18.63
2023-02-21T14:53:21.372Z,18.55
2023-02-21T14:56:56.858Z,18.17
2023-02-21T15:00:30.786Z,17.99
2023-02-21T15:03:41.863Z,18.10
2023-02-21T15:06:53.045Z,17.93
2023-02-21T15:10:27.067Z,17.77
2023-02-21T15:13:31.904Z,17.45
2023-02-21T15:16:33.339Z,17.22
2023-02-21T15:19:35.849Z,17.02
2023-02-21T15:22:37.259Z,16.97
2023-02-21T15:25:38.675Z,16.80
2023-02-21T15:28:40.071Z,16.68
2023-02-21T15:31:57.035Z,16.59
2023-02-21T15:34:58.834Z,16.32
2023-02-21T15:38:03.883Z,16.24
2023-02-21T15:41:15.934Z,16.18
2023-02-21T15:44:26.380Z,16.21
2023-02-21T15:47:32.866Z,16.27
2023-02-21T15:50:46.589Z,16.13
2023-02-21T15:54:11.247Z,16.10
2023-02-21T15:57:23.965Z,15.96
2023-02-21T16:00:33.132Z,15.88
2023-02-21T16:03:39.090Z,15.82
2023-02-21T16:06:48.409Z,15.70
2023-02-21T16:09:57.201Z,15.62
2023-02-21T16:13:00.873Z,15.55
2023-02-21T16:16:02.484Z,15.48
2023-02-21T16:19:04.071Z,15.36
2023-02-21T16:22:29.987Z,15.19
2023-02-21T16:25:33.356Z,15.10
2023-02-21T16:28:36.236Z,15.01
2023-02-21T16:31:39.843Z,14.88
2023-02-21T16:34:41.416Z,14.80
2023-02-21T16:37:42.898Z,14.69
2023-02-21T16:40:44.702Z,14.57
2023-02-21T16:43:46.770Z,14.42
2023-02-21T16:46:50.876Z,14.26
2023-02-21T16:49:52.298Z,14.03
2023-02-21T16:52:53.780Z,13.86
2023-02-21T16:55:56.320Z,13.64
2023-02-21T16:58:57.804Z,13.49
2023-02-21T17:01:59.261Z,13.37
2023-02-21T17:05:00.664Z,13.32
2023-02-21T17:08:02.956Z,13.31
2023-02-21T17:11:04.590Z,13.26
2023-02-21T17:14:05.978Z,13.13
2023-02-21T17:17:07.423Z,12.90
2023-02-21T17:20:14.404Z,12.79
2023-02-21T17:23:15.956Z,12.75
2023-02-21T17:26:17.898Z,12.64
2023-02-21T17:29:20.308Z,12.52
2023-02-21T17:32:21.810Z,12.48
2023-02-21T17:35:24.535Z,12.35
2023-02-21T17:38:25.966Z,12.26
2023-02-21T17:41:28.865Z,12.19
2023-02-21T17:44:30.340Z,12.12
2023-02-21T17:47:31.738Z,11.98
2023-02-21T17:50:33.563Z,11.87
2023-02-21T17:53:35.127Z,11.84
2023-02-21T17:56:36.546Z,11.77
2023-02-21T17:59:38.930Z,11.73
2023-02-21T18:02:40.485Z,11.63
2023-02-21T18:05:41.906Z,11.55
2023-02-21T18:08:46.685Z,11.52
2023-02-21T18:11:53.015Z,11.42
2023-02-21T18:14:54.457Z,11.42
2023-02-21T18:17:56.740Z,11.39
2023-02-21T18:20:59.598Z,11.35
2023-02-21T18:24:00.980Z,11.14
2023-02-21T18:27:02.457Z,11.05
2023-02-21T18:30:04.885Z,11.02
2023-02-21T18:33:06.628Z,10.98
2023-02-21T18:36:09.035Z,10.89
2023-02-21T18:39:10.412Z,10.75
2023-02-21T18:42:11.790Z,10.75
2023-02-21T18:45:13.295Z,10.73
2023-02-21T18:48:15.724Z,10.70
2023-02-21T18:51:19.883Z,10.65
2023-02-21T18:54:21.384Z,10.64
2023-02-21T18:57:22.928Z,10.58
2023-02-21T19:00:25.894Z,10.58
2023-02-21T19:03:27.368Z,10.44
2023-02-21T19:06:28.858Z,10.26
2023-02-21T19:09:30.244Z,10.25
2023-02-21T19:12:31.684Z,10.22
2023-02-21T19:15:33.424Z,10.22
2023-02-21T19:18:34.803Z,10.22
2023-02-21T19:21:36.254Z,10.17
2023-02-21T19:24:37.707Z,10.09
2023-02-21T19:27:39.091Z,10.04
2023-02-21T19:30:40.582Z,10.00
2023-02-21T19:33:43.245Z,9.99
2023-02-21T19:36:45.014Z,10.04
2023-02-21T19:39:46.558Z,10.02
2023-02-21T19:42:48.620Z,10.07
2023-02-21T19:45:52.063Z,10.08
2023-02-21T19:48:53.816Z,10.03
2023-02-21T19:51:58.421Z,10.00
2023-02-21T19:54:59.788Z,10.04
2023-02-21T19:58:06.384Z,9.99
2023-02-21T20:01:08.647Z,9.98
2023-02-21T20:04:10.830Z,10.00
2023-02-21T20:07:12.294Z,9.96
2023-02-21T20:10:16.600Z,9.92
2023-02-21T20:13:20.124Z,9.88
2023-02-21T20:16:22.259Z,9.92
2023-02-21T20:19:24.831Z,9.85
2023-02-21T20:22:31.187Z,9.83
2023-02-21T20:25:32.610Z,9.99
2023-02-21T20:28:34.070Z,9.93
2023-02-21T20:31:37.497Z,9.77
2023-02-21T20:34:39.693Z,9.70
2023-02-21T20:37:41.197Z,9.73
2023-02-21T20:40:42.657Z,9.81
2023-02-21T20:43:44.037Z,9.82
2023-02-21T20:46:45.462Z,9.77
2023-02-21T20:49:47.599Z,9.71
2023-02-21T20:52:49.023Z,9.65
2023-02-21T20:55:50.760Z,9.60
2023-02-21T20:58:52.151Z,9.56
2023-02-21T21:01:53.834Z,9.55
2023-02-21T21:04:55.222Z,9.49
2023-02-21T21:07:58.051Z,9.42
2023-02-21T21:10:59.529Z,9.38
2023-02-21T21:14:03.805Z,9.30
2023-02-21T21:17:06.009Z,9.24
2023-02-21T21:20:09.771Z,9.16
2023-02-21T21:23:11.138Z,9.16
2023-02-21T21:26:13.761Z,9.13
2023-02-21T21:29:15.482Z,9.09
2023-02-21T21:32:23.536Z,8.99
2023-02-21T21:35:29.824Z,8.92
2023-02-21T21:38:31.626Z,8.79
2023-02-21T21:41:34.208Z,8.60
2023-02-21T21:44:37.748Z,8.44
2023-02-21T21:47:39.128Z,8.18
2023-02-21T21:50:42.096Z,7.91
2023-02-21T21:53:43.629Z,7.82
2023-02-21T21:56:45.101Z,7.75
2023-02-21T21:59:49.444Z,7.72
2023-02-21T22:02:56.926Z,7.71
2023-02-21T22:06:00.416Z,7.73
2023-02-21T22:09:02.274Z,7.73
2023-02-21T22:12:06.108Z,7.72
2023-02-21T22:15:10.463Z,7.65
2023-02-21T22:18:15.929Z,7.54
2023-02-21T22:21:17.722Z,7.50
2023-02-21T22:24:20.708Z,7.43
2023-02-21T22:27:22.240Z,7.34
2023-02-21T22:30:25.067Z,7.20
2023-02-21T22:33:26.504Z,7.16
2023-02-21T22:36:31.117Z,7.10
2023-02-21T22:39:32.498Z,7.05
2023-02-21T22:42:33.951Z,7.05
2023-02-21T22:45:36.375Z,7.05
2023-02-21T22:48:40.020Z,7.05
2023-02-21T22:51:41.402Z,6.99
2023-02-21T22:54:42.829Z,7.00
2023-02-21T22:57:44.204Z,6.93
2023-02-21T23:00:47.076Z,6.89
2023-02-21T23:03:48.466Z,6.89
2023-02-21T23:06:49.845Z,6.89
2023-02-21T23:09:51.986Z,6.88
2023-02-21T23:12:58.121Z,6.90
2023-02-21T23:16:01.154Z,6.95
2023-02-21T23:19:02.696Z,7.06
2023-02-21T23:22:05.332Z,7.09
2023-02-21T23:25:19.602Z,7.16
2023-02-21T23:28:20.981Z,7.27
2023-02-21T23:31:22.836Z,7.26
2023-02-21T23:34:39.610Z,7.44
2023-02-21T23:37:42.954Z,7.35
2023-02-21T23:41:02.300Z,7.31
2023-02-21T23:44:03.843Z,7.30
2023-02-21T23:47:06.035Z,7.26
2023-02-21T23:50:17.084Z,7.24
2023-02-21T23:53:21.061Z,7.27
2023-02-21T23:56:22.783Z,7.31
2023-02-21T23:59:26.792Z,7.34
